Time;durP1;ratioP1;P1;durP2;ratioP2;P2;SDS_P1;SDS_P2;PMS_P1;PMS_P2;Temp;Humidity;BMP_temperature;BMP_pressure;BME280_temperature;BME280_humidity;BME280_pressure;Samples;Min_cycle;Max_cycle;Signal;HPM_P1;HPM_P2
2021/03/11 09:16:27;;;;;;;14.25;9.48;;;281.90;1459.20;;;;;;5135136;27;20383;-70
2021/03/11 09:19:01;;;;;;;18.92;11.13;;;179.70;1612.80;;;;;;5135133;28;20023;-72
2021/03/11 09:21:34;;;;;;;14.25;8.90;;;153.90;1740.80;;;;;;5134407;28;20025;-71
2021/03/11 09:24:00;;;;;;;14.95;10.55;;;128.60;1740.80;;;;;;5135110;28;20019;-72
2021/03/11 09:26:30;;;;;;;16.80;10.65;;;128.50;1843.20;;;;;;5134809;28;20012;-71
2021/03/11 09:28:59;;;;;;;20.70;13.55;;;128.60;1868.80;;;;;;5133853;28;20015;-70
2021/03/11 09:31:27;;;;;;;22.33;13.38;;;128.50;1920.00;;;;;;5135375;28;20080;-70
2021/03/11 09:33:59;;;;;;;18.98;13.27;;;128.60;1894.40;;;;;;5135300;28;20044;-71
2021/03/11 09:36:25;;;;;;;20.92;13.43;;;128.60;1920.00;;;;;;5134530;28;20043;-71
2021/03/11 09:38:51;;;;;;;19.45;12.75;;;128.60;1894.40;;;;;;5135381;28;20080;-72
2021/03/11 09:41:25;;;;;;;50.17;14.95;;;128.70;1817.60;;;;;;5135236;28;20443;-71
2021/03/11 09:43:51;;;;;;;22.08;12.65;;;128.70;1817.60;;;;;;5134405;28;20031;-71
2021/03/11 09:46:23;;;;;;;20.85;12.88;;;128.30;1843.20;;;;;;5134903;28;20111;-70
2021/03/11 09:48:53;;;;;;;19.55;12.65;;;128.30;1868.80;;;;;;5135116;28;20049;-70
2021/03/11 09:51:20;;;;;;;26.63;15.07;;;128.60;1868.80;;;;;;5134827;28;20043;-72
2021/03/11 09:53:47;;;;;;;25.88;15.73;;;153.60;1996.80;;;;;;5134659;28;20416;-70
2021/03/11 09:56:37;;;;;;;22.27;15.63;;;153.90;1868.80;;;;;;5135043;28;20037;-71
2021/03/11 09:59:08;;;;;;;22.05;15.13;;;154.40;1843.20;;;;;;5135476;28;20053;-71
2021/03/11 10:01:40;;;;;;;28.17;15.63;;;154.10;1792.00;;;;;;5135140;28;20041;-71
2021/03/11 10:04:14;;;;;;;28.10;18.48;;;154.50;1843.20;;;;;;5134870;28;20023;-71
2021/03/11 10:07:01;;;;;;;24.95;16.80;;;154.00;1843.20;;;;;;5135056;28;20015;-70
2021/03/11 10:09:42;;;;;;;30.45;16.63;;;153.60;1945.60;;;;;;5134840;28;20024;-71
2021/03/11 10:12:09;;;;;;;30.23;20.55;;;153.60;1945.60;;;;;;5134504;28;20051;-70
2021/03/11 10:14:35;;;;;;;31.23;21.13;;;128.90;1894.40;;;;;;5134105;28;20043;-71
2021/03/11 10:17:03;;;;;;;28.17;17.17;;;153.90;1920.00;;;;;;5133874;28;20023;-70
2021/03/11 10:19:29;;;;;;;24.95;15.93;;;154.00;1945.60;;;;;;5133184;28;20048;-71
2021/03/11 10:22:15;;;;;;;29.77;19.10;;;154.00;1843.20;;;;;;5123645;28;20019;-71
2021/03/11 10:24:52;;;;;;;22.45;14.95;;;154.30;1792.00;;;;;;5118269;28;20023;-70
2021/03/11 10:27:26;;;;;;;22.40;15.20;;;154.10;1766.40;;;;;;5109655;28;20024;-71
2021/03/11 10:30:11;;;;;;;22.77;14.05;;;153.90;1792.00;;;;;;5100321;28;20024;-71
2021/03/11 10:32:42;;;;;;;28.77;16.20;;;154.30;1894.40;;;;;;5098223;28;20050;-71
2021/03/11 10:35:10;;;;;;;30.17;19.85;;;179.40;1945.60;;;;;;5100307;28;20028;-71
2021/03/11 10:37:40;;;;;;;40.90;21.67;;;180.10;1868.80;;;;;;5100322;28;20016;-71
2021/03/11 10:40:09;;;;;;;24.85;14.73;;;205.40;1766.40;;;;;;5099875;28;20106;-73
2021/03/11 10:42:54;;;;;;;16.35;11.70;;;205.10;1689.60;;;;;;5102184;28;20464;-69
2021/03/11 10:45:26;;;;;;;18.13;12.57;;;180.00;1664.00;;;;;;5114055;28;20031;-72
2021/03/11 10:48:04;;;;;;;19.00;12.45;;;205.20;1689.60;;;;;;5120238;28;20020;-69
2021/03/11 10:50:36;;;;;;;20.92;12.77;;;205.50;1689.60;;;;;;5120501;28;20062;-71
2021/03/11 10:53:02;;;;;;;18.95;11.23;;;204.80;1689.60;;;;;;5112792;28;20049;-70
2021/03/11 10:55:40;;;;;;;15.27;10.90;;;180.10;1638.40;;;;;;5106883;28;20028;-71
2021/03/11 10:58:18;;;;;;;18.50;12.35;;;204.90;1612.80;;;;;;5107471;28;20055;-70
2021/03/11 11:00:44;;;;;;;15.95;11.60;;;205.30;1689.60;;;;;;5111173;28;20020;-70
2021/03/11 11:03:10;;;;;;;19.55;13.35;;;230.70;1587.20;;;;;;5107179;28;20020;-70
2021/03/11 11:05:36;;;;;;;19.48;12.57;;;230.60;1587.20;;;;;;5109283;28;20103;-69
2021/03/11 11:08:08;;;;;;;16.27;13.52;;;256.20;1587.20;;;;;;5108519;28;20015;-71
2021/03/11 11:10:34;;;;;;;15.68;11.25;;;256.90;1536.00;;;;;;5106905;28;20437;-71
2021/03/11 11:13:14;;;;;;;17.98;12.90;;;256.90;1484.80;;;;;;5105713;28;20467;-73
2021/03/11 11:15:40;;;;;;;23.30;12.88;;;231.00;1459.20;;;;;;5098809;28;20044;-69
2021/03/11 11:18:06;;;;;;;20.98;12.65;;;230.40;1536.00;;;;;;5098908;28;20081;-72
2021/03/11 11:20:33;;;;;;;22.73;15.32;;;230.70;1510.40;;;;;;5098892;28;20020;-70
2021/03/11 11:23:00;;;;;;;24.63;13.57;;;256.30;1484.80;;;;;;5098589;28;20110;-71
2021/03/11 11:25:26;;;;;;;30.73;11.70;;;256.60;1459.20;;;;;;5105519;28;20027;-71
2021/03/11 11:27:52;;;;;;;17.85;12.50;;;256.50;1510.40;;;;;;5119121;28;20041;-70
2021/03/11 11:30:18;;;;;;;15.65;10.18;;;281.70;1484.80;;;;;;5119505;28;20346;-71
2021/03/11 11:32:44;;;;;;;18.30;12.40;;;281.70;1459.20;;;;;;5119178;28;20412;-70
2021/03/11 11:35:10;;;;;;;17.48;11.30;;;281.70;1433.60;;;;;;5118940;28;20038;-71
2021/03/11 11:37:36;;;;;;;15.27;11.13;;;256.80;1484.80;;;;;;5118421;28;20024;-70
2021/03/11 11:40:02;;;;;;;25.55;18.05;;;281.90;1459.20;;;;;;5118763;28;20027;-71
2021/03/11 11:42:28;;;;;;;24.15;16.70;;;282.50;1459.20;;;;;;5118965;28;20031;-70
2021/03/11 11:44:54;;;;;;;16.33;12.43;;;282.30;1433.60;;;;;;5119465;28;20027;-70
2021/03/11 11:47:20;;;;;;;23.73;13.18;;;307.20;1382.40;;;;;;5119428;28;20026;-70
2021/03/11 11:49:46;;;;;;;19.83;12.48;;;281.80;1459.20;;;;;;5112128;28;20024;-70
2021/03/11 11:52:12;;;;;;;14.65;10.27;;;282.00;1484.80;;;;;;5112349;28;20069;-71
2021/03/11 11:54:38;;;;;;;26.88;16.70;;;307.70;1382.40;;;;;;5098523;28;20416;-70
2021/03/11 11:57:05;;;;;;;16.00;10.63;;;307.50;1433.60;;;;;;5097707;28;20016;-71
2021/03/11 11:59:32;;;;;;;20.25;11.63;;;281.70;1382.40;;;;;;5098524;28;20020;-71
2021/03/11 12:01:58;;;;;;;23.73;13.13;;;307.90;1408.00;;;;;;5118721;28;20467;-70
2021/03/11 12:04:24;;;;;;;16.27;12.77;;;333.10;1356.80;;;;;;5118301;28;20055;-71
2021/03/11 12:06:50;;;;;;;15.93;12.15;;;333.50;1382.40;;;;;;5118505;28;20104;-71
2021/03/11 12:09:16;;;;;;;47.67;15.98;;;333.60;1305.60;;;;;;5119002;28;20081;-71
2021/03/11 12:11:43;;;;;;;18.58;12.88;;;358.70;1305.60;;;;;;5118632;28;20106;-72
2021/03/11 12:14:09;;;;;;;15.70;11.07;;;307.40;1356.80;;;;;;5118894;28;20034;-71
2021/03/11 12:16:34;;;;;;;15.35;11.95;;;307.90;1305.60;;;;;;5118712;28;20020;-70
2021/03/11 12:19:00;;;;;;;25.55;12.85;;;384.00;1228.80;;;;;;5118288;28;20149;-72
2021/03/11 12:21:26;;;;;;;14.70;13.10;;;384.90;1203.20;;;;;;5116632;28;20027;-72
2021/03/11 12:23:52;;;;;;;18.50;12.77;;;486.40;1177.60;;;;;;5099901;28;20020;-70
2021/03/11 12:26:20;;;;;;;15.30;12.48;;;461.10;1152.00;;;;;;5098614;28;20039;-71
2021/03/11 12:28:47;;;;;;;18.63;12.52;;;461.30;1177.60;;;;;;5102981;28;20285;-71
2021/03/11 12:31:13;;;;;;;14.40;12.90;;;486.60;1075.20;;;;;;5107641;28;20019;-72
2021/03/11 12:33:39;;;;;;;13.40;12.00;;;563.50;1049.60;;;;;;5105926;28;20031;-70
2021/03/11 12:36:06;;;;;;;12.40;11.20;;;691.40;870.40;;;;;;5106816;28;20304;-69
2021/03/11 12:38:33;;;;;;;13.32;11.68;;;691.90;819.20;;;;;;5100126;28;20035;-71
2021/03/11 12:40:59;;;;;;;11.00;9.90;;;691.60;819.20;;;;;;5097731;28;20023;-70
2021/03/11 12:43:26;;;;;;;10.50;9.45;;;768.10;793.60;;;;;;5097652;28;20023;-70
2021/03/11 12:45:53;;;;;;;12.13;9.52;;;820.10;742.40;;;;;;5096664;28;20055;-70
2021/03/11 12:48:19;;;;;;;17.42;9.60;;;768.90;742.40;;;;;;5097393;28;20412;-71
2021/03/11 12:50:48;;;;;;;10.23;9.20;;;691.20;742.40;;;;;;5079505;28;20122;-70
2021/03/11 12:53:16;;;;;;;11.05;9.35;;;743.00;793.60;;;;;;5097033;28;20389;-71
2021/03/11 12:55:42;;;;;;;9.75;8.85;;;691.30;768.00;;;;;;5097429;28;20024;-70
2021/03/11 12:58:09;;;;;;;9.90;8.90;;;717.40;742.40;;;;;;5097753;28;20036;-71
2021/03/11 13:00:35;;;;;;;10.15;8.77;;;768.80;691.20;;;;;;5096873;28;20354;-70
2021/03/11 13:03:02;;;;;;;9.88;8.68;;;793.60;716.80;;;;;;5096461;28;20430;-72
2021/03/11 13:05:28;;;;;;;9.13;8.23;;;743.10;716.80;;;;;;5097152;28;20028;-70
2021/03/11 13:07:54;;;;;;;13.57;9.05;;;666.00;768.00;;;;;;5096970;28;20202;-71
2021/03/11 13:10:20;;;;;;;9.82;8.15;;;716.90;768.00;;;;;;5097287;28;20123;-71
2021/03/11 13:12:45;;;;;;;11.32;8.27;;;717.70;716.80;;;;;;5096977;28;20332;-71
2021/03/11 13:15:13;;;;;;;6.72;6.05;;;743.20;691.20;;;;;;5097327;28;20040;-70
2021/03/11 13:17:39;;;;;;;5.93;5.32;;;691.60;742.40;;;;;;5096261;28;20024;-70
2021/03/11 13:20:06;;;;;;;11.02;8.00;;;666.50;768.00;;;;;;5096535;28;20286;-70
2021/03/11 13:22:33;;;;;;;8.10;7.30;;;742.60;793.60;;;;;;5096666;28;20065;-70
2021/03/11 13:24:59;;;;;;;6.93;6.00;;;717.00;768.00;;;;;;5097417;28;20035;-70
2021/03/11 13:27:25;;;;;;;6.20;5.60;;;793.60;691.20;;;;;;5097035;28;20112;-71
2021/03/11 13:29:52;;;;;;;7.40;5.32;;;768.50;691.20;;;;;;5097104;28;20413;-70
2021/03/11 13:32:18;;;;;;;6.72;6.03;;;845.10;665.60;;;;;;5078146;28;20340;-70
2021/03/11 13:34:46;;;;;;;7.07;6.38;;;870.70;665.60;;;;;;5096927;28;20035;-70
2021/03/11 13:37:12;;;;;;;10.05;6.38;;;922.00;614.40;;;;;;5097122;28;20020;-70
2021/03/11 13:39:38;;;;;;;18.65;15.52;;;896.10;614.40;;;;;;5097321;28;20028;-72
2021/03/11 13:42:05;;;;;;;16.95;6.97;;;870.80;665.60;;;;;;5096839;28;20020;-70
2021/03/11 13:44:31;;;;;;;5.43;4.93;;;845.50;665.60;;;;;;5097272;28;20028;-71
2021/03/11 13:46:57;;;;;;;13.07;6.55;;;794.50;665.60;;;;;;5096956;28;20085;-71
2021/03/11 13:49:23;;;;;;;13.15;7.18;;;794.30;716.80;;;;;;5106189;28;20038;-72
2021/03/11 13:51:49;;;;;;;8.38;5.47;;;896.80;588.80;;;;;;5104476;28;20020;-70
2021/03/11 13:54:15;;;;;;;10.82;6.75;;;692.00;691.20;;;;;;5104820;28;20408;-70
2021/03/11 13:56:41;;;;;;;26.00;17.35;;;615.00;742.40;;;;;;5104785;28;20022;-71
2021/03/11 13:59:07;;;;;;;21.30;13.73;;;742.50;742.40;;;;;;5105071;28;20396;-70
2021/03/11 14:01:33;;;;;;;26.45;18.88;;;819.50;665.60;;;;;;5107153;28;20016;-69
2021/03/11 14:03:59;;;;;;;15.77;14.27;;;845.70;640.00;;;;;;5107300;28;20020;-68
2021/03/11 14:06:25;;;;;;;21.30;19.35;;;819.90;665.60;;;;;;5109552;28;20019;-69
2021/03/11 14:08:52;;;;;;;6.88;6.18;;;793.90;691.20;;;;;;5109586;28;20035;-69
2021/03/11 14:11:18;;;;;;;5.82;5.22;;;742.50;742.40;;;;;;5108225;28;20016;-69
2021/03/11 14:13:43;;;;;;;5.82;5.22;;;692.10;716.80;;;;;;5109880;28;20759;-70
2021/03/11 14:16:09;;;;;;;10.80;4.80;;;692.00;742.40;;;;;;5108977;28;20097;-69
2021/03/11 14:18:36;;;;;;;4.00;3.50;;;691.80;742.40;;;;;;5103235;28;20027;-68
2021/03/11 14:21:02;;;;;;;4.95;4.22;;;691.50;742.40;;;;;;5100716;28;20024;-69
2021/03/11 14:23:29;;;;;;;8.00;6.40;;;691.20;768.00;;;;;;5100193;28;20412;-69
2021/03/11 14:25:55;;;;;;;5.10;4.60;;;666.50;768.00;;;;;;5100499;28;20416;-69
2021/03/11 14:28:21;;;;;;;6.22;4.65;;;666.00;768.00;;;;;;5107687;28;20059;-70
2021/03/11 14:30:46;;;;;;;6.65;5.20;;;563.80;844.80;;;;;;5107040;28;20044;-69
2021/03/11 14:33:14;;;;;;;7.85;4.65;;;537.90;870.40;;;;;;5107737;28;20016;-69
2021/03/11 14:35:42;;;;;;;8.38;4.70;;;563.60;870.40;;;;;;5109311;28;20015;-68
2021/03/11 14:38:08;;;;;;;8.63;5.90;;;589.00;819.20;;;;;;5111866;28;20036;-68
2021/03/11 14:40:35;;;;;;;6.60;5.25;;;512.30;870.40;;;;;;5108022;28;20042;-70
2021/03/11 14:43:00;;;;;;;6.05;5.35;;;537.60;896.00;;;;;;5109317;28;20019;-68
2021/03/11 14:45:31;;;;;;;5.47;4.78;;;564.10;844.80;;;;;;5109261;28;20313;-70
2021/03/11 14:47:59;;;;;;;5.95;4.90;;;589.30;844.80;;;;;;5113891;28;20367;-69
2021/03/11 14:50:26;;;;;;;15.85;9.60;;;588.80;844.80;;;;;;5120156;28;20312;-70
2021/03/11 14:52:52;;;;;;;21.42;19.15;;;589.10;819.20;;;;;;5118232;28;20016;-69
2021/03/11 14:55:19;;;;;;;8.18;6.78;;;589.30;819.20;;;;;;5119893;28;20028;-69
2021/03/11 14:57:44;;;;;;;11.95;10.15;;;589.10;844.80;;;;;;5120082;28;20019;-70
2021/03/11 15:00:11;;;;;;;12.25;9.82;;;588.80;844.80;;;;;;5119924;28;20022;-69
2021/03/11 15:02:37;;;;;;;12.02;9.57;;;615.20;768.00;;;;;;5120170;28;20396;-69
2021/03/11 15:05:04;;;;;;;7.80;5.70;;;691.20;768.00;;;;;;5119436;28;20063;-69
2021/03/11 15:07:30;;;;;;;5.03;4.45;;;717.10;742.40;;;;;;5119939;28;20049;-70
2021/03/11 15:09:56;;;;;;;4.88;4.10;;;742.70;742.40;;;;;;5120064;28;20020;-70
2021/03/11 15:12:22;;;;;;;6.50;5.68;;;742.50;716.80;;;;;;5119741;28;20024;-69
2021/03/11 15:14:48;;;;;;;5.45;4.57;;;691.90;716.80;;;;;;5113338;28;20063;-69
2021/03/11 15:17:14;;;;;;;13.73;8.77;;;665.90;768.00;;;;;;5110595;28;20027;-69
2021/03/11 15:19:39;;;;;;;9.80;8.40;;;615.00;768.00;;;;;;5107246;28;20016;-69
2021/03/11 15:22:05;;;;;;;7.72;6.68;;;589.10;819.20;;;;;;5108992;28;20030;-70
2021/03/11 15:24:31;;;;;;;7.10;6.32;;;563.50;844.80;;;;;;5108767;28;20023;-70
2021/03/11 15:26:57;;;;;;;7.25;5.25;;;538.10;870.40;;;;;;5115379;28;20043;-70
2021/03/11 15:29:23;;;;;;;6.57;5.88;;;512.40;896.00;;;;;;5115241;28;20015;-69
2021/03/11 15:31:49;;;;;;;8.60;5.65;;;486.40;947.20;;;;;;5111973;28;20072;-69
2021/03/11 15:34:16;;;;;;;6.63;4.93;;;461.30;972.80;;;;;;5108306;28;20386;-71
2021/03/11 15:36:42;;;;;;;7.65;4.82;;;461.10;998.40;;;;;;5107945;28;21312;-68
2021/03/11 15:39:08;;;;;;;5.55;4.63;;;461.10;998.40;;;;;;5099557;28;20027;-69
2021/03/11 15:41:34;;;;;;;13.32;6.85;;;461.10;998.40;;;;;;5101974;28;20026;-69
2021/03/11 15:44:00;;;;;;;8.73;7.00;;;461.30;972.80;;;;;;5102042;28;20019;-69
2021/03/11 15:46:26;;;;;;;6.35;5.30;;;512.40;921.60;;;;;;5101538;28;20099;-69
2021/03/11 15:48:52;;;;;;;6.75;5.28;;;538.40;870.40;;;;;;5101236;28;20024;-69
2021/03/11 15:51:18;;;;;;;7.28;6.30;;;537.90;896.00;;;;;;5101814;28;20314;-69
2021/03/11 15:53:45;;;;;;;6.65;5.88;;;487.20;921.60;;;;;;5103045;28;20012;-69
2021/03/11 15:56:10;;;;;;;10.85;7.00;;;461.00;998.40;;;;;;5107847;28;20040;-69
2021/03/11 15:58:36;;;;;;;6.95;5.50;;;410.50;1024.00;;;;;;5109308;28;20059;-69
2021/03/11 16:01:02;;;;;;;6.85;5.90;;;409.80;1075.20;;;;;;5109946;28;20044;-68
2021/03/11 16:03:28;;;;;;;7.82;6.82;;;384.10;1100.80;;;;;;5106938;28;20016;-68
2021/03/11 16:05:54;;;;;;;8.13;6.20;;;358.40;1152.00;;;;;;5107932;28;20034;-71
2021/03/11 16:08:20;;;;;;;9.68;5.85;;;333.10;1203.20;;;;;;5102127;28;20113;-69
2021/03/11 16:10:47;;;;;;;13.35;6.88;;;307.80;1228.80;;;;;;5108988;28;20098;-68
2021/03/11 16:13:14;;;;;;;9.77;6.15;;;282.50;1254.40;;;;;;5108905;28;20024;-69
2021/03/11 16:15:41;;;;;;;9.27;6.25;;;281.90;1305.60;;;;;;5108787;28;20046;-73
2021/03/11 16:18:13;;;;;;;8.77;7.10;;;256.70;1331.20;;;;;;5109139;28;20110;-70
2021/03/11 16:20:41;;;;;;;7.28;5.50;;;256.30;1356.80;;;;;;5109073;28;20015;-69
2021/03/11 16:23:07;;;;;;;8.50;5.15;;;231.30;1356.80;;;;;;5108768;28;20015;-69
2021/03/11 16:25:33;;;;;;;15.68;7.50;;;231.00;1382.40;;;;;;5099990;28;20028;-71
2021/03/11 16:28:00;;;;;;;12.95;6.95;;;230.60;1433.60;;;;;;5096035;28;20429;-71
2021/03/11 16:30:27;;;;;;;10.73;6.15;;;230.40;1459.20;;;;;;5099682;28;20421;-70
2021/03/11 16:32:53;;;;;;;10.25;6.22;;;205.40;1484.80;;;;;;5117281;28;20055;-71
2021/03/11 16:35:19;;;;;;;10.70;7.05;;;204.90;1561.60;;;;;;5118103;28;20412;-71
2021/03/11 16:37:49;;;;;;;20.75;5.85;;;180.10;1561.60;;;;;;5111571;28;20094;-70
2021/03/11 16:40:16;;;;;;;10.60;5.63;;;179.90;1587.20;;;;;;5111885;28;20351;-69
2021/03/11 16:42:48;;;;;;;12.27;6.15;;;179.60;1612.80;;;;;;5106574;28;20020;-70
2021/03/11 16:45:17;;;;;;;9.50;6.45;;;179.60;1612.80;;;;;;5106626;28;20023;-71
2021/03/11 16:47:45;;;;;;;11.13;6.60;;;179.30;1664.00;;;;;;5106889;28;20451;-70
2021/03/11 16:50:12;;;;;;;10.50;6.18;;;154.50;1664.00;;;;;;5106664;28;20030;-69
2021/03/11 16:52:38;;;;;;;9.85;7.20;;;154.40;1689.60;;;;;;5106769;28;20011;-70
2021/03/11 16:55:06;;;;;;;10.88;6.93;;;154.40;1715.20;;;;;;5107127;28;20027;-70
2021/03/11 16:57:32;;;;;;;15.48;7.18;;;154.30;1715.20;;;;;;5105735;28;20016;-69
2021/03/11 16:59:58;;;;;;;12.55;9.27;;;154.10;1792.00;;;;;;5107265;28;20069;-70
2021/03/11 17:02:24;;;;;;;14.20;10.40;;;154.00;1792.00;;;;;;5107911;28;20038;-69
2021/03/11 17:04:50;;;;;;;22.50;18.75;;;153.90;1817.60;;;;;;5114757;28;20024;-70
2021/03/11 17:07:16;;;;;;;11.35;8.07;;;153.80;1792.00;;;;;;5116755;28;20019;-70
2021/03/11 17:09:43;;;;;;;10.88;7.90;;;153.80;1792.00;;;;;;5106688;28;20019;-69
2021/03/11 17:12:09;;;;;;;12.98;9.80;;;153.80;1792.00;;;;;;5107831;28;20019;-70
2021/03/11 17:14:35;;;;;;;11.55;7.90;;;153.80;1792.00;;;;;;5105701;28;20052;-70
2021/03/11 17:17:01;;;;;;;10.50;8.45;;;153.70;1792.00;;;;;;5100834;28;20417;-70
2021/03/11 17:19:27;;;;;;;11.45;8.13;;;153.60;1792.00;;;;;;5105706;28;20026;-69
2021/03/11 17:21:53;;;;;;;11.07;7.55;;;153.60;1817.60;;;;;;5107402;28;20072;-69
2021/03/11 17:24:19;;;;;;;10.00;7.03;;;128.80;1817.60;;;;;;5105668;28;20065;-69
2021/03/11 17:26:45;;;;;;;10.45;7.43;;;128.70;1843.20;;;;;;5106404;28;20015;-69
2021/03/11 17:29:11;;;;;;;12.27;8.98;;;128.80;1843.20;;;;;;5107429;28;20139;-69
2021/03/11 17:31:37;;;;;;;13.13;9.68;;;128.60;1868.80;;;;;;5105309;28;20025;-70
2021/03/11 17:34:04;;;;;;;14.35;10.25;;;128.60;1843.20;;;;;;5106754;28;20088;-70
2021/03/11 17:36:30;;;;;;;15.07;10.65;;;128.50;1868.80;;;;;;5109095;28;20024;-70
2021/03/11 17:38:56;;;;;;;15.73;10.05;;;128.30;1894.40;;;;;;5112224;28;20022;-70
2021/03/11 17:41:22;;;;;;;19.13;12.05;;;128.50;1894.40;;;;;;5111312;28;20019;-69
2021/03/11 17:43:48;;;;;;;15.98;11.25;;;128.50;1894.40;;;;;;5111044;28;20360;-69
2021/03/11 17:46:14;;;;;;;14.43;9.63;;;128.50;1894.40;;;;;;5109209;28;20016;-70
2021/03/11 17:48:39;;;;;;;17.42;10.15;;;128.40;1894.40;;;;;;5111576;28;20341;-69
2021/03/11 17:51:05;;;;;;;15.30;10.35;;;128.20;1920.00;;;;;;5110978;28;20028;-69
2021/03/11 17:53:31;;;;;;;18.23;11.88;;;128.20;1920.00;;;;;;5110344;28;20046;-69
2021/03/11 17:55:57;;;;;;;16.33;11.13;;;128.00;1945.60;;;;;;5109417;28;20324;-69
2021/03/11 17:58:23;;;;;;;19.67;12.65;;;128.10;1945.60;;;;;;5110900;28;20099;-70
2021/03/11 18:00:50;;;;;;;20.40;12.38;;;128.10;1945.60;;;;;;5109126;28;20043;-69
2021/03/11 18:03:16;;;;;;;14.45;10.57;;;128.10;1945.60;;;;;;5107128;28;20019;-69
2021/03/11 18:05:43;;;;;;;14.27;10.02;;;128.10;1945.60;;;;;;5108216;28;20026;-70
2021/03/11 18:08:12;;;;;;;11.60;8.73;;;103.30;1945.60;;;;;;5106759;28;20024;-70
2021/03/11 18:10:39;;;;;;;11.23;7.50;;;103.20;1920.00;;;;;;5106072;28;20114;-69
2021/03/11 18:13:05;;;;;;;8.80;7.05;;;103.20;1920.00;;;;;;5107481;28;20019;-70
2021/03/11 18:15:32;;;;;;;10.65;7.72;;;103.30;1920.00;;;;;;5106274;28;20036;-70
2021/03/11 18:17:58;;;;;;;12.75;9.07;;;103.30;1920.00;;;;;;5105781;28;20217;-69
2021/03/11 18:20:24;;;;;;;11.20;8.25;;;103.20;1920.00;;;;;;5108259;28;20020;-70
2021/03/11 18:22:51;;;;;;;18.88;13.45;;;103.20;1945.60;;;;;;5106294;28;20027;-70
2021/03/11 18:25:18;;;;;;;17.45;12.38;;;103.20;1920.00;;;;;;5106648;28;20058;-69
2021/03/11 18:27:44;;;;;;;19.58;8.95;;;103.10;1920.00;;;;;;5098265;28;20077;-70
2021/03/11 18:30:10;;;;;;;11.00;7.78;;;103.10;1945.60;;;;;;5098040;28;20051;-69
2021/03/11 18:32:38;;;;;;;12.73;8.85;;;102.90;1971.20;;;;;;5098295;28;20027;-69
2021/03/11 18:35:05;;;;;;;34.13;22.52;;;103.00;1945.60;;;;;;5097910;28;20032;-71
2021/03/11 18:37:31;;;;;;;10.68;8.02;;;103.10;1945.60;;;;;;5097814;28;20031;-71
2021/03/11 18:39:58;;;;;;;10.32;7.18;;;103.10;1920.00;;;;;;5097484;28;20024;-71
2021/03/11 18:42:25;;;;;;;15.25;7.70;;;103.20;1920.00;;;;;;5115539;28;20024;-71
2021/03/11 18:44:51;;;;;;;16.13;7.35;;;103.20;1920.00;;;;;;5117777;28;20027;-72
2021/03/11 18:47:17;;;;;;;10.88;7.18;;;103.10;1920.00;;;;;;5117866;28;20358;-72
2021/03/11 18:49:43;;;;;;;8.32;5.68;;;103.10;1920.00;;;;;;5117887;28;20027;-70
2021/03/11 18:52:09;;;;;;;9.50;6.85;;;103.10;1920.00;;;;;;5118436;28;20043;-71
2021/03/11 18:54:35;;;;;;;11.80;6.88;;;103.10;1920.00;;;;;;5116360;28;20036;-71
2021/03/11 18:57:02;;;;;;;12.93;7.00;;;103.10;1920.00;;;;;;5097552;28;20016;-70
2021/03/11 18:59:28;;;;;;;13.15;7.28;;;103.10;1894.40;;;;;;5096774;28;20028;-70
2021/03/11 19:01:54;;;;;;;13.50;7.60;;;103.10;1894.40;;;;;;5105372;28;20023;-70
2021/03/11 19:04:20;;;;;;;16.55;9.27;;;103.00;1945.60;;;;;;5117384;28;20074;-70
2021/03/11 19:06:46;;;;;;;16.17;11.80;;;103.00;1920.00;;;;;;5117058;28;20320;-71
2021/03/11 19:09:13;;;;;;;11.23;8.63;;;103.10;1894.40;;;;;;5117674;28;20035;-71
2021/03/11 19:11:39;;;;;;;11.63;7.45;;;103.00;1920.00;;;;;;5117491;28;20393;-71
2021/03/11 19:14:06;;;;;;;13.43;7.72;;;103.00;1920.00;;;;;;5106168;28;20031;-70
2021/03/11 19:16:32;;;;;;;14.20;9.30;;;102.90;1945.60;;;;;;5105889;28;20027;-71
2021/03/11 19:18:57;;;;;;;15.18;9.15;;;103.00;1945.60;;;;;;5086980;28;20337;-72
2021/03/11 19:21:23;;;;;;;12.38;7.25;;;103.00;1945.60;;;;;;5106770;28;20019;-70
2021/03/11 19:23:49;;;;;;;11.55;8.20;;;103.00;1945.60;;;;;;5105238;28;20044;-70
2021/03/11 19:26:17;;;;;;;11.30;7.97;;;103.00;1945.60;;;;;;5105341;28;20024;-70
2021/03/11 19:28:44;;;;;;;12.45;8.35;;;102.80;1945.60;;;;;;5102803;28;20047;-70
2021/03/11 19:31:10;;;;;;;11.40;7.50;;;103.00;1920.00;;;;;;5106431;28;20070;-71
2021/03/11 19:33:36;;;;;;;12.35;8.18;;;103.10;1945.60;;;;;;5106953;28;20454;-71
2021/03/11 19:36:03;;;;;;;16.08;9.23;;;102.90;1945.60;;;;;;5105229;28;20024;-71
2021/03/11 19:38:28;;;;;;;14.40;9.15;;;103.00;1920.00;;;;;;5104864;28;20023;-70
2021/03/11 19:40:54;;;;;;;12.27;8.68;;;102.90;1945.60;;;;;;5100870;28;20020;-71
2021/03/11 19:43:25;;;;;;;11.85;8.35;;;102.90;1945.60;;;;;;5106186;28;20047;-71
2021/03/11 19:45:52;;;;;;;11.90;8.70;;;102.90;1945.60;;;;;;5104310;28;20022;-69
2021/03/11 19:48:18;;;;;;;11.48;7.78;;;102.90;1971.20;;;;;;5104899;28;20034;-70
2021/03/11 19:50:44;;;;;;;16.75;10.98;;;102.80;1945.60;;;;;;5106281;28;20019;-70
2021/03/11 19:53:10;;;;;;;13.73;8.50;;;102.80;1971.20;;;;;;5104246;28;20024;-70
2021/03/11 19:55:37;;;;;;;12.75;8.32;;;102.80;1945.60;;;;;;5105252;28;20023;-69
2021/03/11 19:58:08;;;;;;;14.98;10.05;;;102.80;1945.60;;;;;;5105410;28;20016;-70
2021/03/11 20:00:35;;;;;;;20.50;14.90;;;102.80;1945.60;;;;;;5085372;28;20475;-70
2021/03/11 20:03:01;;;;;;;16.08;11.35;;;102.70;1971.20;;;;;;5104725;28;20064;-71
2021/03/11 20:05:28;;;;;;;10.80;7.70;;;102.70;1945.60;;;;;;5106037;28;20023;-70
2021/03/11 20:07:54;;;;;;;11.20;7.78;;;102.60;1971.20;;;;;;5105168;28;20045;-71
2021/03/11 20:10:21;;;;;;;14.10;9.18;;;102.60;1971.20;;;;;;5104474;28;20424;-70
2021/03/11 20:12:52;;;;;;;12.00;8.10;;;102.70;1971.20;;;;;;5104201;28;20552;-70
2021/03/11 20:15:24;;;;;;;11.05;7.80;;;102.60;1971.20;;;;;;5103512;28;20632;-70
2021/03/11 20:17:50;;;;;;;20.10;12.65;;;102.70;1945.60;;;;;;5084909;28;20165;-70
2021/03/11 20:20:17;;;;;;;23.67;14.80;;;102.70;1945.60;;;;;;5104517;28;20026;-71
2021/03/11 20:22:44;;;;;;;12.05;8.38;;;102.70;1945.60;;;;;;5105354;28;20023;-70
2021/03/11 20:25:11;;;;;;;11.70;8.80;;;102.60;1945.60;;;;;;5103637;28;20055;-69
2021/03/11 20:27:37;;;;;;;11.75;8.48;;;102.60;1945.60;;;;;;5103750;28;20562;-69
2021/03/11 20:30:07;;;;;;;9.65;6.57;;;102.70;1945.60;;;;;;5095274;28;20115;-69
2021/03/11 20:32:33;;;;;;;12.07;7.82;;;102.70;1945.60;;;;;;5095715;28;20020;-69
2021/03/11 20:34:59;;;;;;;12.43;7.65;;;102.60;1945.60;;;;;;5094357;28;20409;-69
2021/03/11 20:37:26;;;;;;;11.68;7.22;;;102.60;1945.60;;;;;;5094570;28;20035;-69
2021/03/11 20:39:52;;;;;;;10.77;7.05;;;102.70;1920.00;;;;;;5094977;28;20031;-71
2021/03/11 20:42:19;;;;;;;15.65;10.45;;;102.70;1920.00;;;;;;5100398;28;20028;-68
2021/03/11 20:44:45;;;;;;;17.05;10.23;;;102.80;1920.00;;;;;;5104755;28;20197;-68
2021/03/11 20:47:12;;;;;;;16.42;9.90;;;102.90;1920.00;;;;;;5106259;28;20024;-68
2021/03/11 20:49:39;;;;;;;12.18;6.88;;;102.90;1894.40;;;;;;5102493;28;20020;-70
2021/03/11 20:52:07;;;;;;;10.35;6.45;;;103.00;1868.80;;;;;;5097927;28;20032;-70
2021/03/11 20:54:33;;;;;;;11.82;6.70;;;103.00;1868.80;;;;;;5103982;28;20073;-69
2021/03/11 20:56:59;;;;;;;10.10;7.40;;;103.00;1894.40;;;;;;5101197;28;20047;-69
2021/03/11 20:59:26;;;;;;;9.88;7.10;;;103.00;1868.80;;;;;;5104832;28;20321;-70
2021/03/11 21:01:52;;;;;;;18.17;7.40;;;103.00;1868.80;;;;;;5102390;28;20058;-70
2021/03/11 21:04:18;;;;;;;9.80;6.70;;;102.90;1894.40;;;;;;5095473;28;20055;-69
2021/03/11 21:06:45;;;;;;;10.00;7.20;;;103.00;1894.40;;;;;;5094833;28;20395;-69
2021/03/11 21:09:14;;;;;;;10.80;7.25;;;103.00;1894.40;;;;;;5097716;28;20119;-69
2021/03/11 21:11:40;;;;;;;10.65;7.82;;;102.90;1894.40;;;;;;5103934;28;20092;-68
2021/03/11 21:14:06;;;;;;;10.43;6.97;;;102.80;1920.00;;;;;;5102476;28;20489;-68
2021/03/11 21:16:32;;;;;;;7.95;6.28;;;103.00;1894.40;;;;;;5103253;28;20035;-69
2021/03/11 21:19:00;;;;;;;10.27;7.05;;;102.90;1894.40;;;;;;5112353;28;20351;-69
2021/03/11 21:21:25;;;;;;;11.48;7.28;;;103.00;1894.40;;;;;;5096910;28;20058;-70
2021/03/11 21:23:51;;;;;;;42.75;26.77;;;103.00;1868.80;;;;;;5115064;28;20461;-70